createdAt,value
2023-04-16T00:01:19.551Z,29.94
2023-04-16T00:03:48.200Z,29.91
2023-04-16T00:06:17.016Z,29.85
2023-04-16T00:08:46.596Z,29.78
2023-04-16T00:11:15.201Z,29.89
2023-04-16T00:13:43.426Z,30.18
2023-04-16T00:16:11.821Z,30.01
2023-04-16T00:18:40.248Z,30.29
2023-04-16T00:21:09.187Z,30.12
2023-04-16T00:23:38.065Z,30.12
2023-04-16T00:26:08.089Z,29.86
2023-04-16T00:28:36.632Z,30.21
2023-04-16T00:31:05.215Z,30.18
2023-04-16T00:33:33.704Z,30.16
2023-04-16T00:36:02.221Z,30.16
2023-04-16T00:38:32.541Z,30.13
2023-04-16T00:41:01.128Z,30.18
2023-04-16T00:43:31.817Z,30.11
2023-04-16T00:46:00.428Z,30.24
2023-04-16T00:48:28.951Z,30.52
2023-04-16T00:50:57.403Z,30.68
2023-04-16T00:53:25.781Z,30.61
2023-04-16T00:55:56.168Z,30.56
2023-04-16T00:58:24.565Z,30.47
2023-04-16T01:00:54.514Z,30.08
2023-04-16T01:03:22.829Z,30.62
2023-04-16T01:05:52.014Z,30.49
2023-04-16T01:08:22.095Z,30.52
2023-04-16T01:10:50.683Z,30.54
2023-04-16T01:13:18.872Z,30.38
2023-04-16T01:15:47.550Z,30.34
2023-04-16T01:18:17.725Z,30.13
2023-04-16T01:20:48.156Z,30.04
2023-04-16T01:23:18.550Z,30.28
2023-04-16T01:25:47.037Z,30.42
2023-04-16T01:28:15.239Z,30.54
2023-04-16T01:30:43.689Z,30.51
2023-04-16T01:33:12.489Z,30.31
2023-04-16T01:35:41.153Z,30.79
2023-04-16T01:38:11.246Z,30.15
2023-04-16T01:40:39.806Z,30.90
2023-04-16T01:43:07.978Z,30.65
2023-04-16T01:45:36.691Z,31.20
2023-04-16T01:48:05.452Z,31.00
2023-04-16T01:50:34.067Z,30.98
2023-04-16T01:53:05.237Z,31.20
2023-04-16T01:55:35.684Z,30.77
2023-04-16T01:58:03.909Z,31.06
2023-04-16T02:00:32.357Z,31.06
2023-04-16T02:03:00.838Z,31.15
2023-04-16T02:05:29.403Z,31.25
2023-04-16T02:07:57.471Z,31.29
2023-04-16T02:10:26.007Z,31.29
2023-04-16T02:12:55.488Z,30.72
2023-04-16T02:15:25.431Z,31.47
2023-04-16T02:17:56.951Z,31.45
2023-04-16T02:20:25.764Z,31.15
2023-04-16T02:22:54.177Z,31.20
2023-04-16T02:25:23.224Z,31.19
2023-04-16T02:27:51.418Z,31.07
2023-04-16T02:30:21.458Z,30.79
2023-04-16T02:32:49.870Z,31.11
2023-04-16T02:35:18.280Z,30.97
2023-04-16T02:37:46.442Z,30.87
2023-04-16T02:40:15.130Z,32.23
2023-04-16T02:42:43.506Z,31.57
2023-04-16T02:45:12.650Z,31.38
2023-04-16T02:47:42.242Z,31.00
2023-04-16T02:50:11.336Z,30.95
2023-04-16T02:52:39.582Z,31.15
2023-04-16T02:55:08.823Z,31.14
2023-04-16T02:57:36.933Z,31.10
2023-04-16T03:00:06.412Z,30.90
2023-04-16T03:02:34.666Z,31.21
2023-04-16T03:05:04.915Z,31.00
2023-04-16T03:07:32.997Z,30.91
2023-04-16T03:10:01.583Z,31.19
2023-04-16T03:12:29.734Z,31.13
2023-04-16T03:14:59.015Z,31.01
2023-04-16T03:17:27.177Z,30.88
2023-04-16T03:19:55.671Z,31.04
2023-04-16T03:22:25.299Z,30.74
2023-04-16T03:24:53.714Z,31.12
2023-04-16T03:27:21.874Z,31.00
2023-04-16T03:29:50.449Z,30.94
2023-04-16T03:32:18.841Z,30.52
2023-04-16T03:34:47.249Z,30.54
2023-04-16T03:37:15.355Z,30.50
2023-04-16T03:39:45.219Z,30.30
2023-04-16T03:42:13.497Z,30.50
2023-04-16T03:44:41.940Z,30.36
2023-04-16T03:47:10.096Z,30.43
2023-04-16T03:49:38.558Z,30.33
2023-04-16T03:52:06.906Z,30.19
2023-04-16T03:54:35.522Z,29.99
2023-04-16T03:57:05.383Z,29.92
2023-04-16T03:59:33.871Z,29.93
2023-04-16T04:02:02.159Z,29.94
2023-04-16T04:04:30.711Z,29.92
2023-04-16T04:06:59.057Z,30.08
2023-04-16T04:09:27.536Z,30.14
2023-04-16T04:11:55.636Z,30.01
2023-04-16T04:14:25.528Z,29.50
2023-04-16T04:16:53.634Z,29.85
2023-04-16T04:19:22.100Z,29.59
2023-04-16T04:21:50.184Z,29.55
2023-04-16T04:24:18.603Z,29.76
2023-04-16T04:26:47.068Z,29.56
2023-04-16T04:29:15.737Z,29.54
2023-04-16T04:31:45.886Z,29.26
2023-04-16T04:34:14.343Z,29.18
2023-04-16T04:36:42.518Z,29.33
2023-04-16T04:39:11.220Z,28.97
2023-04-16T04:41:39.526Z,28.91
2023-04-16T04:44:07.970Z,28.74
2023-04-16T04:46:36.209Z,28.95
2023-04-16T04:49:06.347Z,28.53
2023-04-16T04:51:34.762Z,28.76
2023-04-16T04:54:03.286Z,28.75
2023-04-16T04:56:31.504Z,28.40
2023-04-16T04:58:59.866Z,28.57
2023-04-16T05:01:27.974Z,28.62
2023-04-16T05:03:56.595Z,28.70
2023-04-16T05:06:28.381Z,28.46
2023-04-16T05:08:58.235Z,28.93
2023-04-16T05:11:26.359Z,28.75
2023-04-16T05:13:54.801Z,28.58
2023-04-16T05:16:22.978Z,28.74
2023-04-16T05:18:51.823Z,28.71
2023-04-16T05:21:19.986Z,28.62
2023-04-16T05:23:49.845Z,28.02
2023-04-16T05:26:18.038Z,28.38
2023-04-16T05:28:46.786Z,28.30
2023-04-16T05:31:15.132Z,28.17
2023-04-16T05:33:43.595Z,27.85
2023-04-16T05:36:11.767Z,27.77
2023-04-16T05:38:40.142Z,27.38
2023-04-16T05:41:09.774Z,27.18
2023-04-16T05:43:38.266Z,26.96
2023-04-16T05:46:06.579Z,26.83
2023-04-16T05:48:34.956Z,26.52
2023-04-16T05:51:03.441Z,26.40
2023-04-16T05:53:31.989Z,26.40
2023-04-16T05:56:00.162Z,26.46
2023-04-16T05:58:29.929Z,25.71
2023-04-16T06:00:58.144Z,24.03
2023-04-16T06:03:26.614Z,22.67
2023-04-16T06:05:54.828Z,20.87
2023-04-16T06:08:23.487Z,21.12
2023-04-16T06:10:51.671Z,20.88
2023-04-16T06:13:20.252Z,21.61
2023-04-16T06:15:49.822Z,21.60
2023-04-16T06:18:18.280Z,19.77
2023-04-16T06:20:46.556Z,17.69
2023-04-16T06:23:15.784Z,15.99
2023-04-16T06:25:43.922Z,14.45
2023-04-16T06:28:12.372Z,14.34
2023-04-16T06:30:42.728Z,12.82
2023-04-16T06:33:13.955Z,11.21
2023-04-16T06:35:42.285Z,11.41
2023-04-16T06:38:10.870Z,10.03
2023-04-16T06:40:39.193Z,9.71
2023-04-16T06:43:08.320Z,9.83
2023-04-16T06:45:36.498Z,9.71
2023-04-16T06:48:05.548Z,9.42
2023-04-16T06:50:35.510Z,9.71
2023-04-16T06:53:04.179Z,10.69
2023-04-16T06:55:32.494Z,10.42
2023-04-16T06:58:01.077Z,10.65
2023-04-16T07:00:29.302Z,11.41
2023-04-16T07:02:58.588Z,11.86
2023-04-16T07:05:27.148Z,12.21
2023-04-16T07:07:57.816Z,11.07
2023-04-16T07:10:26.520Z,10.68
2023-04-16T07:16:24.950Z,8.85
2023-04-16T07:18:54.106Z,8.89
2023-04-16T07:21:23.564Z,8.32
2023-04-16T07:23:53.590Z,8.16
2023-04-16T07:26:23.068Z,7.90
2023-04-16T07:28:51.669Z,7.64
2023-04-16T07:31:20.043Z,6.86
2023-04-16T07:33:48.676Z,7.60
2023-04-16T07:36:16.842Z,8.46
2023-04-16T07:38:45.600Z,9.55
2023-04-16T07:41:15.971Z,10.18
2023-04-16T07:43:46.981Z,10.05
2023-04-16T07:46:15.229Z,10.20
2023-04-16T07:48:44.184Z,9.32
2023-04-16T07:51:12.674Z,8.09
2023-04-16T07:53:42.294Z,7.46
2023-04-16T07:56:10.727Z,7.79
2023-04-16T07:58:40.981Z,8.04
2023-04-16T08:01:09.442Z,7.99
2023-04-16T08:03:38.328Z,7.15
2023-04-16T08:06:07.164Z,7.15
2023-04-16T08:08:35.811Z,7.08
2023-04-16T08:11:04.118Z,6.52
2023-04-16T08:13:33.626Z,6.87
2023-04-16T08:16:04.209Z,6.05
2023-04-16T08:18:32.930Z,6.77
2023-04-16T08:21:01.619Z,7.87
2023-04-16T08:23:30.327Z,8.42
2023-04-16T08:25:58.563Z,9.14
2023-04-16T08:28:27.208Z,10.35
2023-04-16T08:30:55.912Z,9.62
2023-04-16T08:33:25.899Z,9.63
2023-04-16T08:35:54.211Z,9.71
2023-04-16T08:38:22.887Z,10.04
2023-04-16T08:40:51.452Z,8.50
2023-04-16T08:43:20.691Z,6.33
2023-04-16T08:45:49.101Z,4.97
2023-04-16T08:48:20.770Z,5.61
2023-04-16T08:50:55.441Z,6.36
2023-04-16T08:53:32.604Z,7.13
2023-04-16T08:56:01.660Z,8.39
2023-04-16T08:58:32.447Z,7.60
2023-04-16T09:01:00.941Z,6.01
2023-04-16T09:03:30.083Z,5.72
2023-04-16T09:06:00.392Z,6.03
2023-04-16T09:08:29.107Z,7.48
2023-04-16T09:10:58.029Z,8.57
2023-04-16T09:13:26.791Z,9.84
2023-04-16T09:15:57.286Z,10.07
2023-04-16T09:18:25.849Z,8.54
2023-04-16T09:20:56.416Z,7.75
2023-04-16T09:23:26.255Z,7.15
2023-04-16T09:25:55.735Z,8.20
2023-04-16T09:28:44.008Z,8.57
2023-04-16T09:31:13.980Z,9.81
2023-04-16T09:33:43.074Z,10.08
2023-04-16T09:36:12.096Z,10.33
2023-04-16T09:38:48.978Z,10.02
2023-04-16T09:41:17.851Z,10.67
2023-04-16T09:43:57.777Z,10.07
2023-04-16T09:46:26.941Z,10.72
2023-04-16T09:48:55.567Z,9.54
2023-04-16T09:51:24.934Z,7.93
2023-04-16T09:53:55.582Z,5.42
2023-04-16T09:56:26.502Z,4.60
2023-04-16T09:58:59.453Z,3.26
2023-04-16T10:01:27.882Z,2.08
2023-04-16T10:03:56.978Z,1.46
2023-04-16T10:06:27.503Z,0.71
2023-04-16T10:08:57.889Z,0.08
2023-04-16T10:11:26.081Z,0.00
2023-04-16T10:13:55.398Z,0.00
2023-04-16T10:16:24.162Z,0.00
2023-04-16T10:18:56.604Z,0.00
2023-04-16T10:21:29.072Z,0.00
2023-04-16T10:24:04.022Z,0.00
2023-04-16T10:26:33.277Z,1.79
2023-04-16T10:29:02.231Z,2.64
2023-04-16T10:31:30.697Z,4.33
2023-04-16T10:33:59.800Z,5.60
2023-04-16T10:36:28.252Z,4.09
2023-04-16T10:39:01.397Z,2.73
2023-04-16T10:41:30.528Z,1.35
2023-04-16T10:44:09.718Z,0.24
2023-04-16T10:46:39.882Z,0.00
2023-04-16T10:49:15.218Z,0.00
2023-04-16T10:51:43.641Z,0.00
2023-04-16T10:54:25.939Z,0.00
2023-04-16T10:56:55.589Z,0.00
2023-04-16T10:59:25.213Z,0.00
2023-04-16T11:01:54.866Z,0.00
2023-04-16T11:04:34.461Z,0.00
2023-04-16T11:07:07.675Z,0.00
2023-04-16T11:09:54.595Z,0.00
2023-04-16T11:12:27.857Z,0.75
2023-04-16T11:15:00.921Z,2.09
2023-04-16T11:17:31.000Z,3.34
2023-04-16T11:20:00.235Z,3.91
2023-04-16T11:22:29.207Z,4.45
2023-04-16T11:24:59.781Z,4.63
2023-04-16T11:27:28.280Z,5.44
2023-04-16T11:30:01.987Z,5.49
2023-04-16T11:32:32.860Z,5.77
2023-04-16T11:35:03.997Z,5.87
2023-04-16T11:37:36.029Z,5.36
2023-04-16T11:40:08.439Z,4.66
2023-04-16T11:42:38.099Z,5.08
2023-04-16T11:45:08.268Z,5.37
2023-04-16T11:47:45.910Z,5.48
2023-04-16T11:50:19.958Z,6.03
2023-04-16T11:52:48.622Z,6.73
2023-04-16T11:55:19.161Z,7.82
2023-04-16T11:57:47.724Z,8.13
2023-04-16T12:00:17.178Z,8.46
2023-04-16T12:02:47.120Z,8.31
2023-04-16T12:05:30.971Z,8.09
2023-04-16T12:08:00.339Z,8.21
2023-04-16T12:10:30.801Z,8.11
2023-04-16T12:13:11.877Z,7.97
2023-04-16T12:15:48.526Z,8.10
2023-04-16T12:18:17.694Z,8.73
2023-04-16T12:20:47.579Z,8.77
2023-04-16T12:23:26.894Z,9.02
2023-04-16T12:25:59.844Z,9.20
2023-04-16T12:28:30.004Z,9.34
2023-04-16T12:30:58.620Z,9.57
2023-04-16T12:33:27.010Z,9.95
2023-04-16T12:35:55.613Z,10.07
2023-04-16T12:38:24.703Z,10.84
2023-04-16T12:40:56.887Z,10.50
2023-04-16T12:43:26.932Z,10.83
2023-04-16T12:45:55.605Z,10.53
2023-04-16T12:48:23.906Z,10.58
2023-04-16T12:50:54.970Z,10.59
2023-04-16T12:53:23.142Z,10.93
2023-04-16T12:55:51.680Z,11.14
2023-04-16T12:58:20.070Z,10.93
2023-04-16T13:00:50.021Z,10.18
2023-04-16T13:03:18.523Z,10.59
2023-04-16T13:05:47.186Z,10.25
2023-04-16T13:08:15.636Z,10.46
2023-04-16T13:10:44.431Z,10.40
2023-04-16T13:13:12.722Z,10.31
2023-04-16T13:15:41.406Z,10.34
2023-04-16T13:18:11.122Z,10.07
2023-04-16T13:20:40.101Z,9.99
2023-04-16T13:23:08.923Z,10.19
2023-04-16T13:25:37.966Z,10.34
2023-04-16T13:28:06.491Z,10.34
2023-04-16T13:30:35.283Z,10.17
2023-04-16T13:33:03.790Z,10.36
2023-04-16T13:35:33.882Z,10.30
2023-04-16T13:38:02.452Z,10.77
2023-04-16T13:40:31.162Z,10.43
2023-04-16T13:42:59.467Z,10.58
2023-04-16T13:45:28.210Z,11.10
2023-04-16T13:47:56.964Z,10.99
2023-04-16T13:50:25.780Z,11.10
2023-04-16T13:52:56.536Z,11.47
2023-04-16T13:55:25.402Z,11.24
2023-04-16T13:57:53.881Z,11.61
2023-04-16T14:00:22.800Z,11.71
2023-04-16T14:02:51.231Z,11.70
2023-04-16T14:05:20.804Z,11.44
2023-04-16T14:07:49.056Z,11.44
2023-04-16T14:10:19.468Z,11.12
2023-04-16T14:12:47.740Z,11.67
2023-04-16T14:15:16.298Z,11.55
2023-04-16T14:17:45.571Z,11.89
2023-04-16T14:20:15.748Z,11.54
2023-04-16T14:22:44.993Z,11.21
2023-04-16T14:25:13.688Z,11.18
2023-04-16T14:27:43.301Z,10.74
2023-04-16T14:30:12.413Z,10.79
2023-04-16T14:32:40.843Z,10.73
2023-04-16T14:35:10.451Z,10.85
2023-04-16T14:37:39.107Z,10.60
2023-04-16T14:40:09.920Z,10.63
2023-04-16T14:42:38.902Z,10.82
2023-04-16T14:45:10.367Z,10.74
2023-04-16T14:47:45.916Z,10.92
2023-04-16T14:50:15.758Z,11.76
2023-04-16T14:52:44.226Z,12.21
2023-04-16T14:55:12.671Z,12.44
2023-04-16T14:57:41.659Z,12.70
2023-04-16T15:00:13.705Z,12.74
2023-04-16T15:02:42.540Z,13.09
2023-04-16T15:05:11.630Z,13.12
2023-04-16T15:07:41.306Z,13.04
2023-04-16T15:10:10.853Z,13.23
2023-04-16T15:12:39.294Z,13.40
2023-04-16T15:15:12.136Z,13.24
2023-04-16T15:17:40.732Z,13.34
2023-04-16T15:20:10.766Z,13.30
2023-04-16T15:22:39.537Z,13.74
2023-04-16T15:25:09.095Z,13.60
2023-04-16T15:27:37.669Z,13.45
2023-04-16T15:30:07.554Z,13.50
2023-04-16T15:32:37.298Z,13.46
2023-04-16T15:35:06.428Z,13.58
2023-04-16T15:37:34.677Z,13.71
2023-04-16T15:40:05.564Z,13.60
2023-04-16T15:42:33.840Z,13.64
2023-04-16T15:45:02.318Z,13.84
2023-04-16T15:47:30.676Z,13.49
2023-04-16T15:50:00.683Z,13.39
2023-04-16T15:52:29.132Z,14.11
2023-04-16T15:54:57.654Z,14.05
2023-04-16T15:57:26.028Z,14.26
2023-04-16T16:00:06.392Z,14.37
2023-04-16T16:02:38.434Z,14.50
2023-04-16T16:05:10.797Z,14.25
2023-04-16T16:07:39.130Z,14.60
2023-04-16T16:10:08.996Z,14.50
2023-04-16T16:12:37.960Z,14.63
2023-04-16T16:15:07.727Z,15.06
2023-04-16T16:17:36.256Z,15.15
2023-04-16T16:20:10.449Z,15.00
2023-04-16T16:22:40.723Z,15.18
2023-04-16T16:25:10.435Z,15.27
2023-04-16T16:27:38.751Z,15.55
2023-04-16T16:30:08.885Z,15.17
2023-04-16T16:32:40.220Z,15.39
2023-04-16T16:35:09.808Z,15.28
2023-04-16T16:37:39.984Z,15.22
2023-04-16T16:40:09.528Z,15.59
2023-04-16T16:42:37.859Z,15.68
2023-04-16T16:45:07.045Z,15.73
2023-04-16T16:47:35.386Z,15.81
2023-04-16T16:50:05.496Z,15.50
2023-04-16T16:52:34.690Z,16.06
2023-04-16T16:55:04.645Z,15.90
2023-04-16T16:57:33.002Z,16.12
2023-04-16T17:00:01.557Z,16.25
2023-04-16T17:02:29.905Z,15.86
2023-04-16T17:05:00.327Z,16.05
2023-04-16T17:07:28.624Z,16.04
2023-04-16T17:09:58.134Z,16.44
2023-04-16T17:12:29.434Z,16.01
2023-04-16T17:14:58.003Z,16.48
2023-04-16T17:17:28.170Z,16.52
2023-04-16T17:19:56.669Z,16.72
2023-04-16T17:22:24.862Z,16.85
2023-04-16T17:24:53.383Z,16.81
2023-04-16T17:27:21.819Z,16.89
2023-04-16T17:29:53.011Z,16.42
2023-04-16T17:32:21.509Z,16.76
2023-04-16T17:34:50.306Z,16.75
2023-04-16T17:37:18.754Z,17.10
2023-04-16T17:39:47.336Z,16.87
2023-04-16T17:42:15.569Z,17.18
2023-04-16T17:44:44.165Z,16.79
2023-04-16T17:47:13.873Z,17.18
2023-04-16T17:49:45.268Z,17.15
2023-04-16T17:52:13.531Z,16.99
2023-04-16T17:54:42.183Z,16.90
2023-04-16T17:57:10.536Z,17.32
2023-04-16T17:59:39.149Z,17.02
2023-04-16T18:02:07.609Z,17.14
2023-04-16T18:04:38.027Z,17.50
2023-04-16T18:07:06.793Z,17.78
2023-04-16T18:09:35.869Z,17.81
2023-04-16T18:12:04.210Z,17.57
2023-04-16T18:14:32.858Z,17.93
2023-04-16T18:17:02.636Z,17.57
2023-04-16T18:19:32.893Z,17.67
2023-04-16T18:22:02.593Z,17.32
2023-04-16T18:24:33.326Z,18.01
2023-04-16T18:27:01.655Z,17.55
2023-04-16T18:29:33.552Z,18.27
2023-04-16T18:32:04.134Z,18.39
2023-04-16T18:34:33.314Z,18.53
2023-04-16T18:37:03.330Z,18.50
2023-04-16T18:39:33.915Z,18.56
2023-04-16T18:42:03.396Z,18.96
2023-04-16T18:44:31.898Z,19.09
2023-04-16T18:47:00.289Z,19.02
2023-04-16T18:49:28.875Z,19.00
2023-04-16T18:51:57.213Z,19.03
2023-04-16T18:54:27.682Z,18.99
2023-04-16T18:56:57.311Z,19.08
2023-04-16T18:59:26.698Z,19.23
2023-04-16T19:01:55.030Z,19.87
2023-04-16T19:04:23.777Z,19.77
2023-04-16T19:06:51.968Z,20.57
2023-04-16T19:09:20.551Z,20.54
2023-04-16T19:11:50.739Z,19.78
2023-04-16T19:14:19.406Z,20.25
2023-04-16T19:16:47.774Z,20.06
2023-04-16T19:19:16.402Z,20.88
2023-04-16T19:21:44.663Z,21.17
2023-04-16T19:24:13.288Z,21.26
2023-04-16T19:26:41.517Z,21.13
2023-04-16T19:29:11.894Z,21.33
2023-04-16T19:31:40.266Z,21.65
2023-04-16T19:34:08.991Z,21.60
2023-04-16T19:36:37.276Z,21.68
2023-04-16T19:39:06.314Z,21.31
2023-04-16T19:41:34.981Z,21.36
2023-04-16T19:44:03.602Z,21.20
2023-04-16T19:46:33.350Z,21.14
2023-04-16T19:49:01.958Z,21.40
2023-04-16T19:51:30.409Z,21.61
2023-04-16T19:53:59.786Z,21.62
2023-04-16T19:56:28.081Z,21.31
2023-04-16T19:58:56.867Z,21.48
2023-04-16T20:01:25.434Z,21.35
2023-04-16T20:03:55.790Z,21.35
2023-04-16T20:06:24.240Z,21.33
2023-04-16T20:08:52.862Z,21.50
2023-04-16T20:11:21.400Z,21.46
2023-04-16T20:13:50.233Z,21.93
2023-04-16T20:16:22.872Z,21.82
2023-04-16T20:18:54.437Z,21.87
2023-04-16T20:21:25.230Z,20.45
2023-04-16T20:23:53.824Z,21.51
2023-04-16T20:26:24.080Z,21.82
2023-04-16T20:28:52.969Z,21.45
2023-04-16T20:31:21.829Z,21.38
2023-04-16T20:33:50.373Z,21.46
2023-04-16T20:36:18.647Z,21.56
2023-04-16T20:38:48.686Z,21.50
2023-04-16T20:41:21.511Z,21.61
2023-04-16T20:43:52.923Z,21.91
2023-04-16T20:46:24.452Z,21.73
2023-04-16T20:48:53.073Z,21.86
2023-04-16T20:51:21.627Z,21.95
2023-04-16T20:53:52.283Z,21.56
2023-04-16T20:56:20.698Z,22.32
2023-04-16T20:58:49.208Z,22.27
2023-04-16T21:01:18.461Z,22.25
2023-04-16T21:03:47.248Z,22.70
2023-04-16T21:06:17.939Z,22.44
2023-04-16T21:08:46.718Z,22.91
2023-04-16T21:11:16.289Z,23.31
2023-04-16T21:13:44.868Z,23.62
2023-04-16T21:16:13.369Z,23.35
2023-04-16T21:18:42.098Z,23.71
2023-04-16T21:21:10.400Z,23.78
2023-04-16T21:23:39.318Z,24.00
2023-04-16T21:26:07.571Z,24.02
2023-04-16T21:28:37.838Z,23.79
2023-04-16T21:31:06.184Z,24.25
2023-04-16T21:33:34.741Z,24.86
2023-04-16T21:36:02.932Z,24.55
2023-04-16T21:38:31.554Z,24.73
2023-04-16T21:40:59.721Z,24.29
2023-04-16T21:43:29.149Z,24.41
2023-04-16T21:45:58.920Z,24.33
2023-04-16T21:48:28.600Z,24.47
2023-04-16T21:50:58.116Z,24.70
2023-04-16T21:53:28.147Z,24.92
2023-04-16T21:55:56.619Z,24.94
2023-04-16T21:58:26.801Z,25.33
2023-04-16T22:00:55.165Z,25.60
2023-04-16T22:03:26.532Z,25.34
2023-04-16T22:05:58.167Z,24.23
2023-04-16T22:08:27.258Z,25.49
2023-04-16T22:10:59.107Z,25.24
2023-04-16T22:13:27.978Z,26.06
2023-04-16T22:15:56.436Z,25.86
2023-04-16T22:18:26.559Z,25.60
2023-04-16T22:20:55.802Z,25.97
2023-04-16T22:23:24.615Z,25.82
2023-04-16T22:25:56.760Z,25.42
2023-04-16T22:28:25.403Z,25.97
2023-04-16T22:30:53.527Z,26.31
2023-04-16T22:33:22.026Z,26.36
2023-04-16T22:35:51.525Z,25.94
2023-04-16T22:38:20.050Z,26.21
2023-04-16T22:40:48.550Z,26.29
2023-04-16T22:43:17.790Z,26.33
2023-04-16T22:45:47.297Z,26.50
2023-04-16T22:48:16.502Z,26.55
2023-04-16T22:50:48.746Z,26.21
2023-04-16T22:53:18.686Z,26.21
2023-04-16T22:55:46.823Z,26.51
2023-04-16T22:58:16.822Z,26.43
2023-04-16T23:00:45.228Z,26.57
2023-04-16T23:03:13.737Z,26.84
2023-04-16T23:05:41.828Z,26.85
2023-04-16T23:08:10.359Z,27.16
2023-04-16T23:10:40.053Z,27.22
2023-04-16T23:13:08.531Z,27.31
2023-04-16T23:15:36.724Z,27.22
2023-04-16T23:18:05.368Z,28.08
2023-04-16T23:20:33.693Z,28.71
2023-04-16T23:23:02.084Z,27.76
2023-04-16T23:25:30.256Z,27.70
2023-04-16T23:28:00.164Z,27.18
2023-04-16T23:30:28.414Z,27.59
2023-04-16T23:32:56.984Z,28.34
2023-04-16T23:35:25.574Z,27.66
2023-04-16T23:37:54.003Z,27.59
2023-04-16T23:40:22.180Z,27.51
2023-04-16T23:42:50.795Z,27.31
2023-04-16T23:45:20.372Z,27.02
2023-04-16T23:47:51.134Z,27.44
2023-04-16T23:50:19.388Z,27.17
2023-04-16T23:52:49.037Z,27.26
2023-04-16T23:55:17.198Z,27.58
2023-04-16T23:57:45.647Z,27.36
